createdAt,value
2018-11-11T00:02:20.581Z,3.17
2018-11-11T00:04:47.294Z,2.33
2018-11-11T00:07:13.741Z,3.83
2018-11-11T00:09:40.186Z,2.80
2018-11-11T00:12:06.629Z,2.70
2018-11-11T00:14:33.082Z,2.83
2018-11-11T00:16:59.508Z,2.30
2018-11-11T00:19:25.940Z,3.03
2018-11-11T00:21:52.484Z,3.20
2018-11-11T00:24:18.856Z,2.43
2018-11-11T00:26:45.384Z,2.07
2018-11-11T00:29:11.853Z,2.10
2018-11-11T00:31:38.268Z,3.27
2018-11-11T00:34:04.724Z,2.73
2018-11-11T00:36:31.253Z,2.60
2018-11-11T00:38:57.667Z,2.73
2018-11-11T00:41:24.093Z,2.80
2018-11-11T00:43:50.518Z,2.50
2018-11-11T00:46:16.931Z,3.33
2018-11-11T00:48:43.389Z,2.83
2018-11-11T00:51:09.834Z,2.90
2018-11-11T00:53:36.266Z,2.50
2018-11-11T00:56:02.730Z,3.47
2018-11-11T00:58:29.163Z,3.30
2018-11-11T01:00:55.672Z,2.80
2018-11-11T01:03:22.109Z,3.03
2018-11-11T01:05:48.572Z,2.90
2018-11-11T01:08:14.994Z,2.53
2018-11-11T01:10:41.452Z,2.33
2018-11-11T01:13:07.890Z,3.00
2018-11-11T01:15:34.296Z,2.50
2018-11-11T01:18:00.714Z,2.93
2018-11-11T01:20:27.142Z,2.73
2018-11-11T01:22:53.592Z,2.20
2018-11-11T01:25:19.996Z,2.20
2018-11-11T01:27:46.447Z,2.60
2018-11-11T01:30:12.889Z,2.60
2018-11-11T01:32:39.379Z,3.20
2018-11-11T01:35:05.836Z,2.40
2018-11-11T01:37:32.267Z,2.73
2018-11-11T01:39:58.704Z,2.53
2018-11-11T01:42:25.118Z,2.47
2018-11-11T01:44:51.544Z,2.77
2018-11-11T01:47:17.968Z,2.70
2018-11-11T01:49:44.409Z,3.43
2018-11-11T01:52:10.819Z,2.97
2018-11-11T01:54:37.256Z,2.40
2018-11-11T01:57:03.684Z,3.10
2018-11-11T01:59:30.088Z,2.97
2018-11-11T02:01:56.514Z,2.23
2018-11-11T02:04:22.925Z,2.90
2018-11-11T02:06:49.421Z,2.70
2018-11-11T02:09:15.838Z,3.13
2018-11-11T02:11:42.294Z,2.97
2018-11-11T02:14:08.807Z,2.70
2018-11-11T02:16:35.593Z,2.50
2018-11-11T02:19:02.030Z,3.17
2018-11-11T02:21:28.445Z,2.83
2018-11-11T02:23:54.863Z,2.70
2018-11-11T02:26:21.268Z,2.90
2018-11-11T02:28:47.725Z,3.00
2018-11-11T02:31:14.183Z,3.10
2018-11-11T02:33:40.623Z,2.83
2018-11-11T02:36:07.099Z,2.73
2018-11-11T02:38:33.515Z,3.27
2018-11-11T02:40:59.955Z,2.70
2018-11-11T02:43:26.417Z,2.60
2018-11-11T02:45:52.864Z,2.70
2018-11-11T02:48:19.275Z,2.23
2018-11-11T02:50:45.725Z,3.17
2018-11-11T02:53:12.165Z,2.73
2018-11-11T02:55:38.633Z,2.50
2018-11-11T02:58:05.057Z,2.10
2018-11-11T03:00:31.472Z,2.63
2018-11-11T03:02:57.962Z,3.43
2018-11-11T03:05:24.364Z,3.10
2018-11-11T03:07:50.810Z,2.50
2018-11-11T03:10:17.723Z,2.63
2018-11-11T03:12:44.889Z,3.03
2018-11-11T03:15:12.434Z,2.13
2018-11-11T03:17:38.874Z,3.00
2018-11-11T03:20:05.365Z,2.50
2018-11-11T03:22:31.835Z,3.10
2018-11-11T03:24:58.252Z,2.90
2018-11-11T03:27:24.793Z,2.80
2018-11-11T03:29:51.213Z,2.63
2018-11-11T03:32:17.707Z,2.90
2018-11-11T03:34:44.150Z,2.70
2018-11-11T03:37:10.540Z,2.57
2018-11-11T03:39:37.006Z,2.37
2018-11-11T03:42:03.762Z,2.27
2018-11-11T03:44:30.214Z,3.37
2018-11-11T03:46:56.645Z,2.60
2018-11-11T03:49:23.054Z,3.00
2018-11-11T03:51:49.558Z,2.40
2018-11-11T03:54:15.968Z,2.73
2018-11-11T03:56:42.394Z,2.40
2018-11-11T03:59:08.803Z,3.43
2018-11-11T04:01:35.230Z,2.53
2018-11-11T04:04:01.643Z,2.53
2018-11-11T04:06:28.176Z,3.63
2018-11-11T04:08:54.606Z,2.67
2018-11-11T04:11:21.036Z,3.67
2018-11-11T04:13:47.443Z,3.13
2018-11-11T04:16:13.890Z,2.70
2018-11-11T04:18:40.872Z,2.53
2018-11-11T04:21:07.330Z,2.63
2018-11-11T04:23:33.760Z,2.77
2018-11-11T04:26:00.228Z,2.80
2018-11-11T04:28:26.785Z,3.60
2018-11-11T04:30:53.254Z,2.83
2018-11-11T04:33:19.696Z,2.57
2018-11-11T04:35:46.098Z,2.43
2018-11-11T04:38:12.512Z,3.07
2018-11-11T04:40:38.934Z,2.23
2018-11-11T04:43:05.336Z,2.87
2018-11-11T04:45:31.764Z,2.90
2018-11-11T04:47:58.211Z,2.60
2018-11-11T04:50:24.673Z,2.77
2018-11-11T04:52:51.080Z,2.87
2018-11-11T04:55:17.512Z,2.87
2018-11-11T04:57:43.979Z,3.37
2018-11-11T05:00:11.531Z,3.30
2018-11-11T05:02:38.078Z,2.70
2018-11-11T05:05:04.524Z,3.20
2018-11-11T05:07:30.968Z,3.30
2018-11-11T05:09:57.454Z,2.67
2018-11-11T05:12:23.884Z,3.00
2018-11-11T05:14:50.332Z,2.50
2018-11-11T05:17:16.740Z,3.30
2018-11-11T05:19:43.139Z,2.83
2018-11-11T05:22:09.598Z,2.97
2018-11-11T05:24:36.406Z,3.17
2018-11-11T05:27:02.819Z,2.67
2018-11-11T05:29:29.230Z,3.00
2018-11-11T05:31:55.665Z,3.47
2018-11-11T05:34:22.066Z,2.77
2018-11-11T05:36:48.486Z,3.03
2018-11-11T05:39:14.906Z,2.63
2018-11-11T05:41:41.546Z,3.20
2018-11-11T05:44:08.695Z,3.13
2018-11-11T05:46:35.094Z,2.43
2018-11-11T05:49:01.552Z,3.23
2018-11-11T05:51:28.003Z,2.83
2018-11-11T05:53:54.398Z,2.80
2018-11-11T05:56:20.859Z,2.40
2018-11-11T05:58:47.372Z,2.93
2018-11-11T06:01:13.790Z,2.73
2018-11-11T06:03:40.542Z,2.67
2018-11-11T06:06:07.025Z,3.40
2018-11-11T06:08:33.470Z,2.70
2018-11-11T06:10:59.911Z,2.63
2018-11-11T06:13:26.358Z,2.83
2018-11-11T06:15:52.759Z,3.07
2018-11-11T06:18:19.215Z,2.70
2018-11-11T06:20:45.652Z,2.83
2018-11-11T06:23:12.045Z,3.07
2018-11-11T06:25:38.492Z,3.20
2018-11-11T06:28:04.960Z,3.40
2018-11-11T06:30:31.380Z,3.30
2018-11-11T06:32:57.788Z,3.30
2018-11-11T06:35:24.243Z,2.53
2018-11-11T06:37:50.682Z,3.50
2018-11-11T06:40:17.077Z,3.53
2018-11-11T06:42:43.513Z,3.00
2018-11-11T06:45:13.186Z,2.80
2018-11-11T06:47:40.078Z,3.23
2018-11-11T06:50:06.531Z,3.07
2018-11-11T06:52:32.977Z,2.70
2018-11-11T06:54:59.475Z,2.50
2018-11-11T06:57:25.851Z,3.13
2018-11-11T06:59:52.301Z,3.03
2018-11-11T07:02:18.764Z,2.80
2018-11-11T07:04:46.109Z,2.63
2018-11-11T07:07:12.583Z,2.83
2018-11-11T07:09:39.011Z,2.80
2018-11-11T07:12:05.481Z,3.20
2018-11-11T07:14:31.899Z,2.80
2018-11-11T07:16:58.326Z,3.13
2018-11-11T07:19:24.811Z,3.20
2018-11-11T07:21:51.251Z,2.90
2018-11-11T07:24:17.738Z,3.30
2018-11-11T07:26:44.159Z,3.37
2018-11-11T07:29:10.613Z,3.90
2018-11-11T07:31:37.067Z,4.60
2018-11-11T07:34:03.479Z,2.70
2018-11-11T07:36:29.907Z,3.20
2018-11-11T07:38:56.361Z,3.30
2018-11-11T07:41:22.812Z,2.87
2018-11-11T07:43:49.239Z,3.63
2018-11-11T07:46:15.785Z,4.03
2018-11-11T07:51:01.385Z,3.37
2018-11-11T07:53:28.031Z,3.17
2018-11-11T07:55:54.765Z,3.13
2018-11-11T07:58:21.195Z,3.00
2018-11-11T08:00:47.633Z,2.67
2018-11-11T08:03:14.072Z,3.43
2018-11-11T08:05:40.476Z,3.07
2018-11-11T08:08:06.886Z,2.63
2018-11-11T08:10:33.371Z,3.17
2018-11-11T08:12:59.848Z,3.30
2018-11-11T08:15:26.270Z,3.23
2018-11-11T08:17:52.694Z,2.80
2018-11-11T08:20:19.099Z,3.90
2018-11-11T08:22:45.749Z,3.63
2018-11-11T08:25:12.171Z,4.67
2018-11-11T08:27:38.611Z,4.10
2018-11-11T08:30:05.044Z,5.37
2018-11-11T08:32:31.498Z,5.17
2018-11-11T08:34:57.929Z,6.30
2018-11-11T08:37:24.392Z,5.83
2018-11-11T08:39:50.861Z,6.17
2018-11-11T08:42:17.308Z,5.77
2018-11-11T08:44:43.747Z,5.70
2018-11-11T08:47:10.180Z,5.07
2018-11-11T08:49:36.600Z,6.40
2018-11-11T08:52:03.022Z,6.47
2018-11-11T08:54:29.462Z,6.37
2018-11-11T08:56:55.891Z,6.63
2018-11-11T08:59:22.428Z,6.50
2018-11-11T09:01:48.884Z,7.70
2018-11-11T09:04:15.351Z,7.60
2018-11-11T09:06:41.852Z,7.90
2018-11-11T09:09:08.373Z,7.13
2018-11-11T09:11:34.813Z,8.87
2018-11-11T09:14:01.274Z,8.03
2018-11-11T09:16:27.732Z,8.10
2018-11-11T09:18:54.199Z,7.23
2018-11-11T09:21:20.718Z,8.03
2018-11-11T09:23:47.182Z,8.63
2018-11-11T09:26:13.633Z,8.87
2018-11-11T09:28:40.096Z,9.37
2018-11-11T09:31:06.514Z,8.70
2018-11-11T09:33:32.941Z,7.30
2018-11-11T09:35:59.608Z,7.50
2018-11-11T09:38:26.072Z,7.80
2018-11-11T09:40:52.544Z,7.80
2018-11-11T09:43:19.002Z,7.00
2018-11-11T09:45:45.481Z,8.57
2018-11-11T09:48:11.951Z,7.70
2018-11-11T09:50:38.427Z,8.87
2018-11-11T09:53:04.869Z,8.10
2018-11-11T09:55:31.284Z,7.30
2018-11-11T09:57:58.262Z,7.77
2018-11-11T10:00:24.840Z,8.53
2018-11-11T10:02:56.857Z,7.90
2018-11-11T10:05:29.159Z,6.70
2018-11-11T10:08:32.660Z,7.13
2018-11-11T10:11:20.704Z,7.43
2018-11-11T10:13:52.428Z,6.97
2018-11-11T10:16:26.768Z,8.43
2018-11-11T10:18:58.953Z,7.87
2018-11-11T10:23:36.608Z,6.03
2018-11-11T10:26:08.695Z,5.87
2018-11-11T10:28:42.235Z,7.77
2018-11-11T10:31:18.823Z,6.53
2018-11-11T10:33:50.727Z,6.60
2018-11-11T10:36:21.650Z,5.20
2018-11-11T10:38:53.429Z,5.77
2018-11-11T10:41:54.682Z,6.83
2018-11-11T10:44:26.232Z,5.90
2018-11-11T10:47:05.481Z,6.17
2018-11-11T10:49:38.456Z,7.03
2018-11-11T10:52:05.040Z,6.60
2018-11-11T10:54:31.534Z,5.70
2018-11-11T10:56:57.972Z,7.73
2018-11-11T10:59:24.390Z,6.70
2018-11-11T11:01:56.516Z,5.90
2018-11-11T11:04:22.977Z,7.03
2018-11-11T11:06:54.954Z,5.83
2018-11-11T11:09:21.413Z,6.43
2018-11-11T11:11:47.942Z,6.20
2018-11-11T11:14:14.364Z,6.03
2018-11-11T11:16:40.845Z,6.20
2018-11-11T11:19:07.639Z,5.13
2018-11-11T11:21:34.167Z,5.33
2018-11-11T11:24:00.661Z,5.50
2018-11-11T11:26:27.137Z,5.57
2018-11-11T11:28:53.954Z,5.27
2018-11-11T11:31:20.430Z,5.33
2018-11-11T11:33:47.037Z,5.77
2018-11-11T11:36:13.513Z,7.13
2018-11-11T11:38:39.965Z,4.63
2018-11-11T11:41:06.464Z,6.10
2018-11-11T11:43:32.866Z,6.37
2018-11-11T11:45:59.368Z,5.50
2018-11-11T11:48:25.812Z,5.57
2018-11-11T11:50:52.259Z,5.43
2018-11-11T11:53:19.674Z,5.90
2018-11-11T11:55:46.093Z,6.23
2018-11-11T11:58:12.560Z,5.43
2018-11-11T12:00:39.001Z,6.30
2018-11-11T12:03:05.441Z,5.07
2018-11-11T12:05:31.843Z,5.43
2018-11-11T12:07:58.301Z,6.47
2018-11-11T12:10:24.814Z,5.40
2018-11-11T12:12:51.273Z,5.73
2018-11-11T12:15:17.802Z,6.07
2018-11-11T12:17:44.262Z,6.37
2018-11-11T12:20:10.731Z,5.60
2018-11-11T12:22:37.240Z,6.03
2018-11-11T12:25:03.704Z,6.70
2018-11-11T12:27:30.135Z,5.83
2018-11-11T12:29:56.585Z,5.37
2018-11-11T12:32:22.998Z,5.37
2018-11-11T12:34:49.433Z,5.50
2018-11-11T12:37:15.861Z,6.13
2018-11-11T12:39:42.311Z,5.87
2018-11-11T12:42:08.805Z,4.80
2018-11-11T12:44:35.386Z,6.43
2018-11-11T12:47:01.883Z,5.23
2018-11-11T12:49:28.185Z,5.80
2018-11-11T12:51:54.632Z,5.47
2018-11-11T12:54:21.058Z,5.83
2018-11-11T12:56:47.521Z,5.17
2018-11-11T12:59:13.921Z,6.43
2018-11-11T13:01:40.393Z,5.43
2018-11-11T13:04:06.855Z,5.70
2018-11-11T13:06:33.297Z,5.97
2018-11-11T13:08:59.732Z,7.17
2018-11-11T13:11:26.237Z,6.33
2018-11-11T13:13:52.758Z,6.17
2018-11-11T13:16:19.184Z,5.67
2018-11-11T13:18:45.593Z,4.73
2018-11-11T13:21:12.099Z,5.70
2018-11-11T13:23:38.566Z,5.87
2018-11-11T13:26:04.991Z,5.03
2018-11-11T13:28:31.399Z,5.13
2018-11-11T13:30:57.849Z,5.60
2018-11-11T13:33:24.305Z,5.10
2018-11-11T13:35:51.182Z,4.80
2018-11-11T13:38:17.687Z,5.53
2018-11-11T13:40:44.092Z,5.77
2018-11-11T13:43:10.519Z,4.57
2018-11-11T13:45:37.092Z,4.33
2018-11-11T13:48:03.590Z,4.30
2018-11-11T13:50:30.070Z,4.87
2018-11-11T13:52:56.510Z,3.80
2018-11-11T13:55:22.970Z,4.60
2018-11-11T13:57:49.926Z,4.27
2018-11-11T14:00:17.872Z,4.13
2018-11-11T14:02:44.379Z,4.13
2018-11-11T14:05:10.839Z,5.03
2018-11-11T14:07:37.602Z,5.60
2018-11-11T14:10:04.030Z,4.47
2018-11-11T14:12:30.478Z,3.97
2018-11-11T14:14:56.890Z,3.83
2018-11-11T14:17:23.322Z,4.10
2018-11-11T14:19:49.857Z,3.77
2018-11-11T14:22:16.252Z,5.00
2018-11-11T14:24:42.800Z,4.90
2018-11-11T14:27:09.206Z,3.53
2018-11-11T14:29:35.648Z,3.63
2018-11-11T14:32:02.084Z,4.40
2018-11-11T14:34:28.602Z,4.27
2018-11-11T14:36:55.010Z,4.50
2018-11-11T14:39:21.430Z,4.13
2018-11-11T14:41:47.894Z,4.60
2018-11-11T14:44:14.340Z,4.30
2018-11-11T14:46:41.034Z,4.67
2018-11-11T14:49:08.343Z,4.20
2018-11-11T14:51:34.769Z,3.53
2018-11-11T14:54:01.310Z,4.40
2018-11-11T14:56:27.752Z,3.63
2018-11-11T14:58:54.376Z,3.73
2018-11-11T15:01:20.728Z,4.73
2018-11-11T15:03:47.191Z,3.97
2018-11-11T15:06:13.651Z,3.23
2018-11-11T15:08:40.046Z,3.60
2018-11-11T15:11:06.545Z,3.10
2018-11-11T15:13:32.990Z,3.37
2018-11-11T15:16:00.241Z,4.17
2018-11-11T15:18:26.720Z,4.63
2018-11-11T15:23:39.675Z,2.93
2018-11-11T15:26:06.175Z,3.13
2018-11-11T15:28:32.623Z,3.50
2018-11-11T15:30:59.226Z,3.67
2018-11-11T15:33:25.493Z,3.47
2018-11-11T15:35:51.991Z,4.00
2018-11-11T15:38:18.459Z,3.17
2018-11-11T15:40:44.898Z,3.33
2018-11-11T15:43:11.372Z,4.00
2018-11-11T15:45:37.803Z,4.03
2018-11-11T15:48:04.703Z,3.60
2018-11-11T15:50:32.133Z,4.10
2018-11-11T15:53:00.024Z,4.77
2018-11-11T15:55:27.644Z,3.47
2018-11-11T15:57:54.122Z,3.23
2018-11-11T16:00:21.983Z,3.40
2018-11-11T16:02:48.421Z,3.60
2018-11-11T16:05:15.575Z,3.27
2018-11-11T16:07:42.853Z,3.00
2018-11-11T16:10:09.920Z,2.93
2018-11-11T16:12:36.354Z,3.40
2018-11-11T16:15:02.873Z,3.73
2018-11-11T16:17:29.339Z,2.60
2018-11-11T16:19:55.935Z,4.20
2018-11-11T16:22:22.378Z,3.43
2018-11-11T16:24:48.861Z,3.10
2018-11-11T16:27:15.289Z,2.77
2018-11-11T16:29:41.895Z,3.27
2018-11-11T16:32:08.346Z,3.60
2018-11-11T16:34:34.789Z,3.33
2018-11-11T16:37:01.291Z,4.97
2018-11-11T16:39:27.716Z,4.07
2018-11-11T16:41:54.318Z,3.73
2018-11-11T16:44:20.907Z,2.90
2018-11-11T16:46:47.366Z,3.60
2018-11-11T16:49:13.858Z,3.03
2018-11-11T16:51:40.304Z,2.13
2018-11-11T16:54:06.824Z,2.97
2018-11-11T16:56:33.241Z,3.57
2018-11-11T16:58:59.677Z,3.40
2018-11-11T17:01:26.117Z,3.43
2018-11-11T17:03:52.580Z,3.47
2018-11-11T17:06:19.006Z,2.87
2018-11-11T17:08:45.464Z,3.33
2018-11-11T17:11:11.947Z,4.00
2018-11-11T17:13:38.420Z,4.27
2018-11-11T17:16:04.987Z,4.00
2018-11-11T17:18:31.440Z,2.80
2018-11-11T17:20:57.914Z,3.07
2018-11-11T17:23:24.354Z,2.57
2018-11-11T17:25:50.818Z,4.20
2018-11-11T17:28:17.288Z,2.90
2018-11-11T17:30:43.848Z,3.17
2018-11-11T17:33:10.376Z,3.00
2018-11-11T17:35:36.817Z,3.97
2018-11-11T17:38:06.301Z,2.63
2018-11-11T17:40:32.765Z,2.97
2018-11-11T17:43:00.188Z,2.90
2018-11-11T17:45:26.732Z,3.17
2018-11-11T17:47:53.660Z,3.10
2018-11-11T17:50:21.682Z,3.60
2018-11-11T17:52:48.162Z,2.67
2018-11-11T17:55:16.085Z,2.03
2018-11-11T17:57:43.044Z,3.47
2018-11-11T18:00:10.991Z,3.63
2018-11-11T18:02:37.716Z,2.90
2018-11-11T18:05:04.171Z,2.63
2018-11-11T18:07:30.740Z,2.77
2018-11-11T18:09:57.213Z,2.97
2018-11-11T18:12:23.714Z,3.53
2018-11-11T18:14:50.499Z,2.90
2018-11-11T18:17:17.028Z,3.03
2018-11-11T18:19:43.510Z,2.17
2018-11-11T18:22:09.977Z,3.53
2018-11-11T18:24:36.437Z,2.60
2018-11-11T18:27:03.019Z,3.03
2018-11-11T18:29:29.479Z,2.10
2018-11-11T18:31:55.862Z,2.70
2018-11-11T18:34:22.466Z,2.07
2018-11-11T18:36:48.936Z,2.20
2018-11-11T18:39:15.413Z,2.53
2018-11-11T18:41:42.402Z,2.90
2018-11-11T18:44:08.896Z,2.43
2018-11-11T18:46:35.417Z,2.50
2018-11-11T18:49:01.871Z,2.53
2018-11-11T18:51:28.402Z,2.73
2018-11-11T18:53:54.946Z,2.60
2018-11-11T18:56:21.377Z,3.30
2018-11-11T18:58:47.887Z,2.40
2018-11-11T19:01:14.404Z,3.13
2018-11-11T19:03:41.558Z,2.63
2018-11-11T19:06:08.315Z,3.67
2018-11-11T19:08:34.743Z,2.10
2018-11-11T19:11:01.415Z,2.50
2018-11-11T19:13:27.693Z,2.20
2018-11-11T19:15:54.155Z,2.80
2018-11-11T19:18:20.612Z,2.80
2018-11-11T19:20:47.149Z,2.70
2018-11-11T19:23:13.592Z,2.63
2018-11-11T19:25:40.170Z,2.40
2018-11-11T19:28:06.631Z,2.57
2018-11-11T19:30:33.390Z,2.23
2018-11-11T19:32:59.814Z,2.50
2018-11-11T19:35:26.320Z,3.30
2018-11-11T19:37:54.107Z,2.57
2018-11-11T19:40:22.145Z,2.80
2018-11-11T19:42:49.220Z,2.67
2018-11-11T19:45:17.214Z,2.43
2018-11-11T19:47:43.845Z,2.60
2018-11-11T19:50:11.540Z,2.90
2018-11-11T19:52:38.696Z,3.00
2018-11-11T19:55:05.184Z,2.87
2018-11-11T19:57:31.739Z,2.80
2018-11-11T19:59:58.546Z,2.47
2018-11-11T20:02:25.045Z,2.17
2018-11-11T20:04:51.510Z,2.40
2018-11-11T20:07:17.944Z,2.80
2018-11-11T20:09:44.422Z,2.67
2018-11-11T20:12:10.972Z,2.77
2018-11-11T20:14:37.442Z,3.10
2018-11-11T20:17:03.913Z,2.73
2018-11-11T20:19:30.391Z,2.63
2018-11-11T20:21:56.878Z,2.73
2018-11-11T20:24:23.420Z,2.07
2018-11-11T20:26:49.860Z,2.50
2018-11-11T20:29:16.376Z,2.20
2018-11-11T20:31:42.858Z,2.53
2018-11-11T20:34:09.358Z,2.60
2018-11-11T20:36:36.765Z,2.67
2018-11-11T20:39:03.287Z,2.73
2018-11-11T20:41:29.855Z,2.40
2018-11-11T20:43:57.837Z,3.27
2018-11-11T20:46:24.298Z,2.30
2018-11-11T20:48:50.762Z,2.53
2018-11-11T20:51:17.246Z,2.43
2018-11-11T20:53:44.225Z,2.30
2018-11-11T20:56:10.765Z,2.40
2018-11-11T20:58:37.148Z,2.10
2018-11-11T21:01:03.585Z,2.43
2018-11-11T21:03:30.085Z,3.20
2018-11-11T21:05:56.461Z,3.20
2018-11-11T21:08:22.963Z,1.80
2018-11-11T21:10:49.569Z,3.03
2018-11-11T21:13:15.993Z,2.50
2018-11-11T21:15:42.448Z,2.60
2018-11-11T21:18:08.906Z,2.53
2018-11-11T21:20:35.328Z,2.40
2018-11-11T21:23:01.775Z,2.43
2018-11-11T21:25:28.292Z,2.80
2018-11-11T21:27:55.206Z,2.87
2018-11-11T21:30:23.213Z,2.80
2018-11-11T21:32:50.015Z,2.17
2018-11-11T21:35:16.552Z,2.83
2018-11-11T21:37:43.073Z,2.27
2018-11-11T21:40:10.217Z,2.77
2018-11-11T21:42:37.056Z,2.50
2018-11-11T21:45:03.536Z,2.30
2018-11-11T21:47:29.980Z,2.67
2018-11-11T21:49:56.502Z,2.70
2018-11-11T21:52:23.138Z,2.70
2018-11-11T21:54:51.811Z,2.40
2018-11-11T21:57:18.272Z,2.73
2018-11-11T21:59:44.820Z,2.83
2018-11-11T22:02:11.324Z,2.30
2018-11-11T22:04:37.746Z,2.20
2018-11-11T22:07:04.166Z,3.10
2018-11-11T22:09:30.655Z,2.37
2018-11-11T22:11:57.110Z,2.43
2018-11-11T22:14:23.606Z,2.43
2018-11-11T22:16:50.045Z,2.53
2018-11-11T22:19:16.502Z,2.80
2018-11-11T22:21:42.954Z,2.50
2018-11-11T22:24:09.481Z,2.70
2018-11-11T22:26:35.908Z,2.90
2018-11-11T22:29:02.368Z,2.90
2018-11-11T22:31:28.782Z,2.50
2018-11-11T22:33:55.244Z,2.33
2018-11-11T22:36:21.680Z,2.60
2018-11-11T22:38:48.129Z,2.50
2018-11-11T22:41:14.608Z,2.93
2018-11-11T22:43:42.018Z,2.27
2018-11-11T22:46:08.450Z,2.77
2018-11-11T22:48:34.890Z,2.30
2018-11-11T22:51:01.322Z,2.47
2018-11-11T22:53:27.794Z,2.53
2018-11-11T22:55:54.240Z,2.20
2018-11-11T22:58:20.718Z,2.00
2018-11-11T23:00:52.906Z,2.77
2018-11-11T23:03:19.323Z,2.33
2018-11-11T23:05:45.786Z,2.70
2018-11-11T23:08:12.224Z,2.40
2018-11-11T23:10:38.638Z,2.30
2018-11-11T23:13:05.073Z,2.40
2018-11-11T23:15:31.622Z,2.60
2018-11-11T23:17:58.070Z,2.40
2018-11-11T23:20:24.491Z,2.27
2018-11-11T23:22:50.913Z,1.90
2018-11-11T23:25:17.854Z,2.40
2018-11-11T23:27:44.349Z,2.57
2018-11-11T23:30:11.307Z,2.13
2018-11-11T23:32:37.817Z,2.37
2018-11-11T23:35:04.261Z,2.27
2018-11-11T23:37:30.676Z,2.97
2018-11-11T23:39:57.200Z,2.70
2018-11-11T23:42:23.641Z,2.40
2018-11-11T23:44:50.057Z,2.50
2018-11-11T23:47:16.454Z,2.60
2018-11-11T23:49:42.890Z,1.90
2018-11-11T23:52:09.329Z,2.90
2018-11-11T23:54:36.076Z,2.20
2018-11-11T23:57:02.500Z,2.50
2018-11-11T23:59:29.173Z,2.03
